Time;durP1;ratioP1;P1;durP2;ratioP2;P2;SDS_P1;SDS_P2;PMS_P1;PMS_P2;Temp;Humidity;BMP_temperature;BMP_pressure;BME280_temperature;BME280_humidity;BME280_pressure;Samples;Min_cycle;Max_cycle;Signal;HPM_P1;HPM_P2
2021/11/10 00:00:22;;;;;;;25.58;10.05;;;10.20;99.90;;;;;;5031344;28;20108;-72
2021/11/10 00:02:47;;;;;;;21.50;8.90;;;10.20;99.90;;;;;;5032299;28;20037;-74
2021/11/10 00:05:15;;;;;;;23.70;10.15;;;10.10;99.90;;;;;;5031878;28;20417;-73
2021/11/10 00:07:41;;;;;;;24.50;10.00;;;10.10;99.90;;;;;;5030639;28;20029;-73
2021/11/10 00:10:08;;;;;;;27.92;10.60;;;10.10;99.90;;;;;;5031922;28;20036;-73
2021/11/10 00:12:34;;;;;;;29.30;10.27;;;10.10;99.90;;;;;;5031665;28;20053;-74
2021/11/10 00:15:00;;;;;;;23.20;10.82;;;10.10;99.90;;;;;;5031234;28;20053;-73
2021/11/10 00:17:25;;;;;;;27.58;10.73;;;10.10;99.90;;;;;;5031670;28;20022;-74
2021/11/10 00:19:51;;;;;;;26.25;10.57;;;10.10;99.90;;;;;;5031596;28;20021;-73
2021/11/10 00:22:16;;;;;;;28.13;10.63;;;10.10;99.90;;;;;;5031852;28;20055;-73
2021/11/10 00:24:42;;;;;;;22.45;10.65;;;10.10;99.90;;;;;;5031622;28;20029;-73
2021/11/10 00:27:08;;;;;;;33.53;11.70;;;10.00;99.90;;;;;;5032784;28;20033;-74
2021/11/10 00:29:33;;;;;;;24.77;10.82;;;10.00;99.90;;;;;;5031234;28;20029;-73
2021/11/10 00:31:59;;;;;;;27.83;10.70;;;10.00;99.90;;;;;;5032183;28;20033;-73
2021/11/10 00:34:24;;;;;;;24.33;10.77;;;10.00;99.90;;;;;;5031174;28;20021;-72
2021/11/10 00:36:50;;;;;;;21.25;10.20;;;10.00;99.90;;;;;;5031873;28;20032;-73
2021/11/10 00:39:18;;;;;;;22.52;10.57;;;10.00;99.90;;;;;;5031935;28;20041;-73
2021/11/10 00:41:44;;;;;;;29.70;10.95;;;10.00;99.90;;;;;;5031663;28;20115;-74
2021/11/10 00:44:09;;;;;;;27.77;11.43;;;10.00;99.90;;;;;;5031698;28;20547;-73
2021/11/10 00:46:35;;;;;;;31.50;10.30;;;10.00;99.90;;;;;;5031296;28;20048;-73
2021/11/10 00:49:04;;;;;;;29.48;11.93;;;10.00;99.90;;;;;;5031244;28;20028;-73
2021/11/10 00:51:29;;;;;;;27.05;10.45;;;10.10;99.90;;;;;;5031326;28;20495;-73
2021/11/10 00:53:56;;;;;;;26.52;10.40;;;10.00;99.90;;;;;;5031050;28;20030;-73
2021/11/10 00:56:22;;;;;;;31.60;10.65;;;10.00;99.90;;;;;;5033891;28;20044;-74
2021/11/10 00:58:47;;;;;;;30.25;11.77;;;10.00;99.90;;;;;;5035629;28;20473;-73
2021/11/10 01:01:14;;;;;;;30.65;12.30;;;10.00;99.90;;;;;;5035469;28;20025;-73
2021/11/10 01:03:39;;;;;;;25.88;10.75;;;10.00;99.90;;;;;;5034491;28;20393;-74
2021/11/10 01:06:05;;;;;;;24.17;10.32;;;10.00;99.90;;;;;;5035278;28;20036;-74
2021/11/10 01:08:31;;;;;;;26.88;10.57;;;9.90;99.90;;;;;;5034825;28;20469;-73
2021/11/10 01:10:57;;;;;;;21.50;10.05;;;9.90;99.90;;;;;;5034382;28;20021;-72
2021/11/10 01:13:23;;;;;;;23.17;11.13;;;10.30;99.90;;;;;;5035062;28;20025;-74
2021/11/10 01:15:50;;;;;;;22.20;10.60;;;9.80;99.90;;;;;;5035264;28;20440;-73
2021/11/10 01:18:16;;;;;;;26.67;10.75;;;9.80;99.90;;;;;;5034176;28;20025;-74
2021/11/10 01:20:42;;;;;;;30.90;12.15;;;9.70;99.90;;;;;;5034999;28;20076;-74
2021/11/10 01:23:09;;;;;;;23.35;10.43;;;9.60;99.90;;;;;;5034784;28;20508;-73
2021/11/10 01:25:36;;;;;;;27.75;10.55;;;9.50;99.90;;;;;;5034501;28;20037;-74
2021/11/10 01:28:03;;;;;;;24.30;10.50;;;9.40;99.90;;;;;;5035161;28;20022;-74
2021/11/10 01:30:29;;;;;;;28.40;11.65;;;9.30;99.90;;;;;;5034692;28;20587;-73
2021/11/10 01:32:54;;;;;;;23.83;11.50;;;9.20;99.90;;;;;;5034431;28;20108;-74
2021/11/10 01:35:20;;;;;;;30.63;10.77;;;9.20;99.90;;;;;;5034680;28;20131;-73
2021/11/10 01:37:46;;;;;;;24.42;10.38;;;9.20;99.90;;;;;;5034016;28;20118;-74
2021/11/10 01:40:13;;;;;;;22.25;10.45;;;9.10;99.90;;;;;;5035136;28;20075;-74
2021/11/10 01:42:41;;;;;;;26.58;11.40;;;9.10;99.90;;;;;;5035830;28;20112;-75
2021/11/10 01:45:08;;;;;;;22.55;9.65;;;9.00;99.90;;;;;;5034108;28;20065;-73
2021/11/10 01:47:35;;;;;;;23.48;10.88;;;9.00;99.90;;;;;;5034560;28;20075;-73
2021/11/10 01:50:01;;;;;;;23.58;10.00;;;8.90;99.90;;;;;;5034742;28;20025;-74
2021/11/10 01:52:27;;;;;;;25.95;10.52;;;8.90;99.90;;;;;;5033290;28;20481;-74
2021/11/10 01:54:53;;;;;;;26.02;10.82;;;8.80;99.90;;;;;;5035296;28;20087;-73
2021/11/10 01:57:19;;;;;;;24.48;10.85;;;8.80;99.90;;;;;;5036047;28;20052;-74
2021/11/10 01:59:47;;;;;;;23.10;10.82;;;8.80;99.90;;;;;;5035222;28;20018;-73
2021/11/10 02:02:24;;;;;;;26.38;12.48;;;8.70;99.90;;;;;;5034859;28;20022;-73
2021/11/10 02:04:50;;;;;;;31.90;10.93;;;8.70;99.90;;;;;;5034630;28;20047;-73
2021/11/10 02:07:18;;;;;;;32.08;10.57;;;8.70;99.90;;;;;;5033590;28;20087;-73
2021/11/10 02:09:45;;;;;;;29.00;11.63;;;8.70;99.90;;;;;;5034320;28;20489;-74
2021/11/10 02:12:11;;;;;;;29.88;12.75;;;8.70;99.90;;;;;;5033569;28;20021;-73
2021/11/10 02:14:39;;;;;;;34.80;13.88;;;8.70;99.90;;;;;;5033150;28;20025;-74
2021/11/10 02:17:06;;;;;;;32.70;13.18;;;8.80;99.90;;;;;;5034427;28;20029;-73
2021/11/10 02:19:33;;;;;;;36.67;12.65;;;8.80;99.90;;;;;;5033620;28;20026;-73
2021/11/10 02:22:02;;;;;;;24.30;11.35;;;8.90;99.90;;;;;;5033104;28;20033;-73
2021/11/10 02:24:31;;;;;;;25.20;11.50;;;8.90;99.90;;;;;;5034275;28;20021;-73
2021/11/10 02:26:57;;;;;;;36.38;13.40;;;8.90;99.90;;;;;;5033856;28;20409;-73
2021/11/10 02:29:28;;;;;;;38.05;13.00;;;8.90;99.90;;;;;;5033660;28;20032;-74
2021/11/10 02:31:55;;;;;;;33.85;12.70;;;9.00;99.90;;;;;;5034194;28;20044;-73
2021/11/10 02:34:21;;;;;;;28.50;11.30;;;9.00;99.90;;;;;;5033654;28;20030;-74
2021/11/10 02:36:47;;;;;;;29.90;12.05;;;8.90;99.90;;;;;;5034443;28;20028;-73
2021/11/10 02:39:20;;;;;;;30.55;11.70;;;8.90;99.90;;;;;;5033927;28;20038;-74
2021/11/10 02:41:47;;;;;;;33.30;12.18;;;8.90;99.90;;;;;;5033509;28;20462;-73
2021/11/10 02:44:18;;;;;;;30.80;11.88;;;8.90;99.90;;;;;;5034202;28;20025;-74
2021/11/10 02:46:44;;;;;;;30.65;12.15;;;8.90;99.90;;;;;;5033775;28;20029;-73
2021/11/10 02:49:10;;;;;;;31.50;13.15;;;8.90;99.90;;;;;;5032820;28;20108;-74
2021/11/10 02:51:36;;;;;;;32.67;12.45;;;8.80;99.90;;;;;;5033422;28;20049;-74
2021/11/10 02:54:07;;;;;;;33.83;12.18;;;8.90;99.90;;;;;;5033563;28;20029;-74
2021/11/10 02:56:33;;;;;;;34.53;12.68;;;8.80;99.90;;;;;;5033307;28;20029;-74
2021/11/10 02:58:58;;;;;;;34.70;12.65;;;8.80;99.90;;;;;;5033625;28;20025;-72
2021/11/10 03:01:24;;;;;;;32.90;12.07;;;9.30;99.90;;;;;;5033595;28;20107;-73
2021/11/10 03:03:49;;;;;;;34.83;13.65;;;8.80;99.90;;;;;;5033145;28;20053;-73
2021/11/10 03:06:15;;;;;;;35.30;12.35;;;8.80;99.90;;;;;;5033381;28;20037;-73
2021/11/10 03:08:42;;;;;;;37.60;14.18;;;8.80;99.90;;;;;;5032652;28;20017;-73
2021/11/10 03:11:08;;;;;;;32.30;13.30;;;8.70;99.90;;;;;;5032916;28;20065;-74
2021/11/10 03:13:33;;;;;;;39.50;13.35;;;8.70;99.90;;;;;;5032755;28;20053;-74
2021/11/10 03:15:59;;;;;;;37.45;14.95;;;8.70;99.90;;;;;;5033280;28;20025;-73
2021/11/10 03:18:25;;;;;;;37.38;12.70;;;8.70;99.90;;;;;;5031773;28;20017;-73
2021/11/10 03:20:50;;;;;;;26.30;12.88;;;8.70;99.90;;;;;;5032956;28;20021;-74
2021/11/10 03:23:16;;;;;;;31.40;12.57;;;8.60;99.90;;;;;;5032050;28;20144;-74
2021/11/10 03:25:41;;;;;;;28.33;12.40;;;8.60;99.90;;;;;;5032051;28;20037;-73
2021/11/10 03:28:07;;;;;;;28.13;12.10;;;8.60;99.90;;;;;;5032735;28;20477;-73
2021/11/10 03:30:33;;;;;;;29.80;12.32;;;8.60;99.90;;;;;;5032435;28;20502;-73
2021/11/10 03:32:58;;;;;;;31.75;13.15;;;8.60;99.90;;;;;;5033024;28;20028;-73
2021/11/10 03:35:24;;;;;;;36.13;14.13;;;8.60;99.90;;;;;;5032171;28;20021;-72
2021/11/10 03:37:50;;;;;;;31.13;13.10;;;8.70;99.90;;;;;;5031752;28;20080;-73
2021/11/10 03:40:16;;;;;;;37.55;13.93;;;8.70;99.90;;;;;;5032605;28;20056;-73
2021/11/10 03:42:42;;;;;;;27.08;12.27;;;8.70;99.90;;;;;;5032348;28;20041;-73
2021/11/10 03:45:10;;;;;;;28.70;13.68;;;8.70;99.90;;;;;;5031800;28;20025;-74
2021/11/10 03:47:36;;;;;;;26.58;12.68;;;8.70;99.90;;;;;;5032013;28;20048;-74
2021/11/10 03:50:03;;;;;;;34.78;13.95;;;8.70;99.90;;;;;;5032475;28;20030;-74
2021/11/10 03:52:28;;;;;;;29.83;13.30;;;8.70;99.90;;;;;;5031480;28;20112;-74
2021/11/10 03:54:54;;;;;;;29.85;12.63;;;8.60;99.90;;;;;;5032504;28;20125;-73
2021/11/10 03:57:20;;;;;;;36.83;13.38;;;8.60;99.90;;;;;;5031770;28;20434;-73
2021/11/10 03:59:45;;;;;;;24.73;11.30;;;8.70;99.90;;;;;;5031889;28;20059;-72
2021/11/10 04:02:12;;;;;;;29.85;12.63;;;8.60;99.90;;;;;;5031961;28;20083;-74
2021/11/10 04:04:38;;;;;;;25.20;12.55;;;8.60;99.90;;;;;;5031999;28;20033;-73
2021/11/10 04:07:04;;;;;;;26.60;13.18;;;8.60;99.90;;;;;;5031555;28;20393;-73
2021/11/10 04:09:30;;;;;;;29.65;12.98;;;8.70;99.90;;;;;;5031760;28;20029;-73
2021/11/10 04:11:58;;;;;;;27.85;12.57;;;8.70;99.90;;;;;;5032209;28;20120;-73
2021/11/10 04:14:24;;;;;;;37.20;12.90;;;8.60;99.90;;;;;;5030988;28;20022;-73
2021/11/10 04:16:50;;;;;;;37.80;12.95;;;8.70;99.90;;;;;;5032843;28;20026;-73
2021/11/10 04:19:16;;;;;;;32.20;14.00;;;8.60;99.90;;;;;;5032071;28;20378;-74
2021/11/10 04:21:41;;;;;;;37.42;12.85;;;8.70;99.90;;;;;;5031632;28;20025;-73
2021/11/10 04:24:07;;;;;;;36.65;13.35;;;8.70;99.90;;;;;;5032511;28;20025;-74
2021/11/10 04:26:36;;;;;;;33.00;13.23;;;8.70;99.90;;;;;;5031290;28;20037;-73
2021/11/10 04:29:03;;;;;;;41.50;15.45;;;8.70;99.90;;;;;;5032573;28;20057;-74
2021/11/10 04:31:29;;;;;;;35.67;13.50;;;8.70;99.90;;;;;;5035609;28;20029;-73
2021/11/10 04:33:55;;;;;;;35.47;13.55;;;8.60;99.90;;;;;;5035534;28;20029;-73
2021/11/10 04:36:24;;;;;;;26.80;12.32;;;8.60;99.90;;;;;;5035673;28;20035;-73
2021/11/10 04:38:49;;;;;;;36.00;12.90;;;8.60;99.90;;;;;;5035951;28;20118;-75
2021/11/10 04:41:16;;;;;;;28.58;12.10;;;8.60;99.90;;;;;;5036902;28;20646;-75
2021/11/10 04:43:42;;;;;;;26.40;12.48;;;8.60;99.90;;;;;;5035698;28;20416;-75
2021/11/10 04:48:36;;;;;;;34.92;12.73;;;8.60;99.90;;;;;;5035339;28;20377;-74
2021/11/10 04:51:01;;;;;;;30.52;12.77;;;8.60;99.90;;;;;;5036096;28;20448;-75
2021/11/10 04:53:27;;;;;;;28.92;13.05;;;8.50;99.90;;;;;;5036710;28;20029;-75
2021/11/10 04:55:52;;;;;;;30.70;12.88;;;8.60;99.90;;;;;;5035712;28;20029;-73
2021/11/10 04:58:18;;;;;;;32.10;13.32;;;8.50;99.90;;;;;;5035719;28;20032;-75
2021/11/10 05:00:45;;;;;;;37.08;12.70;;;8.60;99.90;;;;;;5035182;28;20034;-74
2021/11/10 05:03:10;;;;;;;34.80;14.52;;;8.60;99.90;;;;;;5034963;28;20489;-74
2021/11/10 05:05:37;;;;;;;40.25;11.82;;;8.50;99.90;;;;;;5034913;28;20038;-74
2021/11/10 05:08:03;;;;;;;33.33;12.02;;;8.60;99.90;;;;;;5035110;28;20036;-74
2021/11/10 05:10:29;;;;;;;31.48;11.95;;;8.60;99.90;;;;;;5034678;28;20029;-74
2021/11/10 05:12:54;;;;;;;37.08;12.90;;;8.60;99.90;;;;;;5035803;28;20167;-74
2021/11/10 05:15:20;;;;;;;27.95;11.68;;;8.60;99.90;;;;;;5035094;28;20025;-74
2021/11/10 05:17:46;;;;;;;32.38;13.68;;;8.70;99.90;;;;;;5034257;28;20112;-74
2021/11/10 05:20:11;;;;;;;36.95;11.98;;;8.60;99.90;;;;;;5034878;28;20036;-74
2021/11/10 05:22:38;;;;;;;34.05;11.45;;;8.60;99.90;;;;;;5034735;28;20030;-74
2021/11/10 05:25:05;;;;;;;32.25;12.05;;;8.60;99.90;;;;;;5034206;28;20028;-74
2021/11/10 05:27:31;;;;;;;31.80;12.18;;;8.60;99.90;;;;;;5034863;28;20025;-74
2021/11/10 05:29:56;;;;;;;28.13;11.85;;;8.60;99.90;;;;;;5034230;28;20028;-74
2021/11/10 05:32:22;;;;;;;31.75;10.55;;;8.60;99.90;;;;;;5034514;28;20437;-74
2021/11/10 05:34:50;;;;;;;29.55;11.50;;;8.60;99.90;;;;;;5034843;28;20100;-74
2021/11/10 05:37:16;;;;;;;25.30;10.93;;;8.60;99.90;;;;;;5033806;28;20082;-74
2021/11/10 05:39:41;;;;;;;31.85;10.93;;;8.50;99.90;;;;;;5034846;28;20428;-73
2021/11/10 05:42:08;;;;;;;26.58;11.35;;;8.50;99.90;;;;;;5034757;28;20056;-74
2021/11/10 05:44:33;;;;;;;32.08;11.98;;;8.50;99.90;;;;;;5034262;28;20018;-74
2021/11/10 05:46:59;;;;;;;23.92;10.70;;;8.60;99.90;;;;;;5035339;28;20381;-75
2021/11/10 05:49:25;;;;;;;30.85;10.63;;;8.60;99.90;;;;;;5034683;28;20017;-76
2021/11/10 05:51:50;;;;;;;25.30;11.65;;;8.50;99.90;;;;;;5033896;28;20037;-75
2021/11/10 05:54:16;;;;;;;34.67;11.05;;;8.50;99.90;;;;;;5034658;28;20016;-74
2021/11/10 05:56:43;;;;;;;22.88;10.32;;;8.50;99.90;;;;;;5034457;28;20013;-74
2021/11/10 05:59:09;;;;;;;27.83;11.25;;;8.50;99.90;;;;;;5033670;28;20377;-74
2021/11/10 06:01:35;;;;;;;28.30;10.65;;;8.50;99.90;;;;;;5034226;28;20083;-74
2021/11/10 06:04:02;;;;;;;32.03;11.52;;;8.50;99.90;;;;;;5034440;28;20024;-75
2021/11/10 06:06:28;;;;;;;32.42;11.70;;;8.40;99.90;;;;;;5033088;28;20033;-74
2021/11/10 06:08:54;;;;;;;31.20;11.15;;;8.50;99.90;;;;;;5034438;28;20443;-74
2021/11/10 06:11:20;;;;;;;22.90;10.75;;;8.50;99.90;;;;;;5033835;28;20025;-73
2021/11/10 06:13:46;;;;;;;30.92;13.85;;;8.40;99.90;;;;;;5033833;28;20013;-75
2021/11/10 06:16:11;;;;;;;30.75;12.10;;;8.50;99.90;;;;;;5034446;28;20064;-74
2021/11/10 06:18:37;;;;;;;39.55;11.88;;;8.50;99.90;;;;;;5034063;28;20454;-76
2021/11/10 06:21:04;;;;;;;31.17;11.18;;;8.40;99.90;;;;;;5031683;28;20061;-75
2021/11/10 06:23:29;;;;;;;25.52;11.57;;;9.30;99.90;;;;;;5032396;28;20132;-74
2021/11/10 06:25:55;;;;;;;28.13;10.68;;;8.40;99.90;;;;;;5031712;28;20116;-74
2021/11/10 06:28:21;;;;;;;30.73;12.50;;;8.40;99.90;;;;;;5031264;28;20424;-75
2021/11/10 06:30:49;;;;;;;39.33;11.65;;;8.30;99.90;;;;;;5031888;28;20034;-74
2021/11/10 06:33:15;;;;;;;28.00;11.27;;;8.30;99.90;;;;;;5031488;28;20437;-74
2021/11/10 06:35:41;;;;;;;27.40;10.40;;;8.30;99.90;;;;;;5033299;28;21642;-76
2021/11/10 06:38:07;;;;;;;32.92;11.10;;;8.30;99.90;;;;;;5032465;28;20132;-76
2021/11/10 06:40:33;;;;;;;26.00;11.20;;;8.30;99.90;;;;;;5030695;28;20040;-75
2021/11/10 06:42:58;;;;;;;22.50;10.75;;;8.20;99.90;;;;;;5032593;28;20028;-76
2021/11/10 06:45:24;;;;;;;32.53;12.95;;;8.20;99.90;;;;;;5032173;28;20461;-74
2021/11/10 06:47:50;;;;;;;23.80;10.85;;;8.20;99.90;;;;;;5031072;28;20053;-73
2021/11/10 06:50:16;;;;;;;30.98;12.10;;;8.20;99.90;;;;;;5032582;28;20037;-74
2021/11/10 06:52:43;;;;;;;24.08;11.18;;;8.20;99.90;;;;;;5031327;28;20108;-75
2021/11/10 06:55:10;;;;;;;28.20;12.52;;;8.20;99.90;;;;;;5032059;28;20029;-73
2021/11/10 06:57:37;;;;;;;34.35;12.52;;;8.20;99.90;;;;;;5032493;28;20028;-73
2021/11/10 07:00:09;;;;;;;40.97;14.18;;;8.30;99.90;;;;;;5032247;28;20046;-76
2021/11/10 07:02:35;;;;;;;30.45;13.40;;;9.00;99.90;;;;;;5030919;28;20120;-73
2021/11/10 07:05:00;;;;;;;37.85;13.20;;;8.30;99.90;;;;;;5032036;28;20105;-73
2021/11/10 07:07:26;;;;;;;25.17;12.02;;;8.30;99.90;;;;;;5031690;28;20458;-73
2021/11/10 07:09:51;;;;;;;36.58;15.25;;;8.30;99.90;;;;;;5031312;28;20067;-73
2021/11/10 07:12:17;;;;;;;39.58;15.02;;;8.20;99.90;;;;;;5031964;28;20056;-75
2021/11/10 07:14:43;;;;;;;45.63;18.77;;;8.30;99.90;;;;;;5031721;28;20018;-75
2021/11/10 07:17:08;;;;;;;42.20;16.27;;;8.30;99.90;;;;;;5031326;28;20021;-75
2021/11/10 07:19:37;;;;;;;42.33;17.05;;;8.30;99.90;;;;;;5032100;28;20052;-74
2021/11/10 07:22:03;;;;;;;43.58;18.33;;;8.30;99.90;;;;;;5032009;28;20397;-75
2021/11/10 07:24:29;;;;;;;50.15;17.58;;;8.40;99.90;;;;;;5031273;28;20028;-74
2021/11/10 07:26:56;;;;;;;45.42;18.90;;;8.40;99.90;;;;;;5031938;28;20041;-74
2021/11/10 07:29:22;;;;;;;44.22;16.92;;;8.40;99.90;;;;;;5031758;28;20014;-74
2021/11/10 07:31:48;;;;;;;38.30;15.82;;;8.50;99.90;;;;;;5031500;28;20358;-74
2021/11/10 07:34:14;;;;;;;48.08;16.92;;;8.50;99.90;;;;;;5032145;28;20028;-75
2021/11/10 07:36:40;;;;;;;45.15;16.13;;;8.40;99.90;;;;;;5032467;28;20018;-75
2021/11/10 07:39:06;;;;;;;37.80;15.40;;;8.40;99.90;;;;;;5032695;28;20052;-75
2021/11/10 07:41:33;;;;;;;40.75;16.65;;;8.40;99.90;;;;;;5032005;28;20144;-74
2021/11/10 07:43:59;;;;;;;38.55;16.17;;;8.50;99.90;;;;;;5031212;28;20026;-76
2021/11/10 07:46:29;;;;;;;42.78;14.68;;;8.50;99.90;;;;;;5028785;28;20034;-76
2021/11/10 07:48:55;;;;;;;33.38;14.27;;;8.40;99.90;;;;;;5029599;28;20025;-77
2021/11/10 07:51:24;;;;;;;37.20;15.52;;;8.40;99.90;;;;;;5031675;28;20044;-76
2021/11/10 07:53:50;;;;;;;35.30;15.23;;;8.40;99.90;;;;;;5032056;28;20014;-76
2021/11/10 07:56:16;;;;;;;42.92;14.95;;;8.40;99.90;;;;;;5030053;28;20030;-77
2021/11/10 07:58:42;;;;;;;38.35;15.50;;;8.50;99.90;;;;;;5032939;28;20013;-78
2021/11/10 08:01:10;;;;;;;29.30;14.60;;;8.60;99.90;;;;;;5033144;28;20025;-78
2021/11/10 08:03:35;;;;;;;42.15;14.75;;;8.50;99.90;;;;;;5033578;28;20410;-77
2021/11/10 08:06:03;;;;;;;33.88;14.45;;;8.60;99.90;;;;;;5030647;28;20197;-78
2021/11/10 08:08:29;;;;;;;43.75;15.07;;;8.60;99.90;;;;;;5035797;28;20013;-77
2021/11/10 08:11:00;;;;;;;36.88;14.15;;;8.60;99.90;;;;;;5017442;28;20029;-77
2021/11/10 08:13:27;;;;;;;;;;;8.60;99.90;;;;;;5034556;28;20030;-80
2021/11/10 08:15:56;;;;;;;31.73;14.00;;;8.60;99.90;;;;;;5034540;28;19913;-79
2021/11/10 08:18:22;;;;;;;35.17;14.57;;;8.70;99.90;;;;;;5033039;28;20021;-80
2021/11/10 08:20:49;;;;;;;44.35;14.65;;;8.70;99.90;;;;;;5032185;28;20090;-79
2021/11/10 08:23:20;;;;;;;35.83;13.85;;;8.70;99.90;;;;;;5033083;28;20021;-80
2021/11/10 08:25:47;;;;;;;28.88;14.48;;;8.80;99.90;;;;;;5032030;28;20064;-80
2021/11/10 08:28:13;;;;;;;35.75;16.65;;;8.70;99.90;;;;;;5034074;28;20021;-80
2021/11/10 08:30:38;;;;;;;34.20;15.50;;;8.70;99.90;;;;;;5033114;28;20028;-81
2021/11/10 08:33:04;;;;;;;39.60;17.00;;;8.70;99.90;;;;;;5032728;28;20033;-80
2021/11/10 08:35:30;;;;;;;41.75;16.80;;;8.80;99.90;;;;;;5032160;28;20029;-80
2021/11/10 08:37:56;;;;;;;31.38;14.80;;;8.80;99.90;;;;;;5032253;28;20091;-79
2021/11/10 08:40:25;;;;;;;41.15;17.67;;;8.80;99.90;;;;;;5032040;28;20025;-80
2021/11/10 08:42:52;;;;;;;42.45;15.85;;;8.90;99.90;;;;;;5033756;28;20466;-76
2021/11/10 08:45:23;;;;;;;39.92;15.68;;;9.00;99.90;;;;;;5034121;28;20025;-77
2021/11/10 08:47:51;;;;;;;32.80;14.68;;;9.00;99.90;;;;;;5032520;28;20092;-79
2021/11/10 08:50:20;;;;;;;42.75;16.23;;;9.10;99.90;;;;;;5032831;28;20167;-78
2021/11/10 08:52:46;;;;;;;35.95;13.90;;;9.20;99.90;;;;;;5029730;28;20021;-79
2021/11/10 08:55:15;;;;;;;27.67;13.82;;;9.20;99.90;;;;;;5033217;28;20370;-77
2021/11/10 08:57:41;;;;;;;35.15;14.55;;;9.20;99.90;;;;;;5032647;28;20033;-77
2021/11/10 09:00:10;;;;;;;30.33;13.57;;;9.30;99.90;;;;;;5033128;28;20369;-76
2021/11/10 09:02:36;;;;;;;37.38;12.55;;;9.30;99.90;;;;;;5032685;28;20063;-79
2021/11/10 09:05:04;;;;;;;34.42;14.40;;;9.40;99.90;;;;;;5033245;28;20026;-78
2021/11/10 09:07:29;;;;;;;38.97;14.40;;;9.50;99.90;;;;;;5029694;28;20040;-80
2021/11/10 09:09:55;;;;;;;33.58;13.32;;;9.50;99.90;;;;;;5031914;28;20378;-78
2021/11/10 09:12:20;;;;;;;36.90;14.13;;;9.60;99.90;;;;;;5032458;28;20052;-72
2021/11/10 09:14:46;;;;;;;41.97;15.85;;;9.70;99.90;;;;;;5032587;28;20090;-80
2021/11/10 09:17:12;;;;;;;34.05;14.30;;;9.70;99.90;;;;;;5035766;28;20108;-79
2021/11/10 09:19:40;;;;;;;31.40;12.75;;;9.80;99.90;;;;;;5035635;28;20104;-75
2021/11/10 09:22:07;;;;;;;29.95;13.05;;;9.80;99.90;;;;;;5035093;28;20052;-76
2021/11/10 09:24:34;;;;;;;41.58;14.07;;;9.90;99.90;;;;;;5035599;28;20026;-78
2021/11/10 09:27:00;;;;;;;33.53;14.00;;;10.00;99.90;;;;;;5032822;28;20042;-77
2021/11/10 09:29:26;;;;;;;37.47;14.30;;;10.00;99.90;;;;;;5023382;28;20454;-77
2021/11/10 09:31:51;;;;;;;39.63;14.73;;;10.00;99.90;;;;;;5034743;28;20474;-76
2021/11/10 09:34:17;;;;;;;36.78;14.52;;;10.10;99.90;;;;;;5035089;28;20124;-78
2021/11/10 09:36:47;;;;;;;31.42;13.38;;;10.10;99.90;;;;;;5033788;28;20033;-76
2021/11/10 09:39:23;;;;;;;35.63;13.10;;;10.10;99.90;;;;;;5033343;28;20033;-77
2021/11/10 09:41:52;;;;;;;32.83;13.18;;;10.20;99.90;;;;;;5036748;28;20033;-80
2021/11/10 09:44:19;;;;;;;32.92;12.93;;;10.20;99.90;;;;;;5035035;28;20030;-74
2021/11/10 09:46:45;;;;;;;29.13;13.05;;;10.30;99.90;;;;;;5035890;28;20042;-78
2021/11/10 09:49:12;;;;;;;32.03;12.90;;;10.40;99.90;;;;;;5034952;28;20030;-78
2021/11/10 09:51:39;;;;;;;30.20;11.95;;;10.40;99.90;;;;;;5034559;28;20041;-78
2021/11/10 09:54:06;;;;;;;33.53;12.13;;;10.50;99.90;;;;;;5036038;28;20037;-78
2021/11/10 09:56:33;;;;;;;30.70;12.07;;;10.50;99.90;;;;;;5036191;28;20122;-77
2021/11/10 09:58:59;;;;;;;25.20;12.00;;;10.50;99.90;;;;;;5034311;28;20025;-80
2021/11/10 10:01:27;;;;;;;26.98;11.82;;;10.60;99.90;;;;;;5034413;28;20076;-79
2021/11/10 10:03:56;;;;;;;31.13;12.10;;;10.70;99.90;;;;;;5034644;28;20116;-78
2021/11/10 10:06:22;;;;;;;20.73;10.85;;;10.70;99.90;;;;;;5032665;28;20036;-77
2021/11/10 10:08:49;;;;;;;30.30;11.70;;;10.80;99.90;;;;;;5035746;28;20075;-77
2021/11/10 10:11:15;;;;;;;29.05;13.25;;;10.80;99.90;;;;;;5034226;28;20056;-78
2021/11/10 10:13:41;;;;;;;27.30;11.77;;;10.80;99.90;;;;;;5033631;28;20433;-80
2021/11/10 10:16:07;;;;;;;29.75;12.25;;;10.80;99.90;;;;;;5034129;28;20448;-80
2021/11/10 10:18:34;;;;;;;30.80;12.32;;;10.90;99.90;;;;;;5032104;28;20112;-81
2021/11/10 10:21:09;;;;;;;27.75;12.60;;;10.90;99.90;;;;;;5034681;28;20037;-83
2021/11/10 10:23:38;;;;;;;24.33;12.50;;;10.90;99.90;;;;;;5031923;28;20028;-82
2021/11/10 10:26:06;;;;;;;23.90;12.10;;;11.00;99.90;;;;;;5032116;28;20112;-80
2021/11/10 10:28:35;;;;;;;31.27;12.65;;;11.10;99.90;;;;;;5030250;28;20021;-82
2021/11/10 10:31:07;;;;;;;28.17;12.00;;;11.00;99.90;;;;;;5036533;28;20113;-80
2021/11/10 10:33:36;;;;;;;29.63;13.43;;;11.00;99.90;;;;;;5037059;28;20036;-81
2021/11/10 10:36:09;;;;;;;27.13;12.02;;;11.00;99.90;;;;;;5038151;28;20057;-80
2021/11/10 10:38:40;;;;;;;29.25;12.60;;;11.00;99.90;;;;;;5036537;28;20045;-80
2021/11/10 10:41:07;;;;;;;29.80;12.00;;;11.10;99.90;;;;;;5034148;28;20104;-80
2021/11/10 10:43:47;;;;;;;26.48;11.15;;;11.20;99.90;;;;;;5034841;28;20033;-82
2021/11/10 10:46:13;;;;;;;26.02;11.13;;;11.20;99.90;;;;;;5035654;28;20044;-81
2021/11/10 10:48:39;;;;;;;22.20;10.02;;;11.20;99.90;;;;;;5036671;28;20022;-80
2021/11/10 10:51:13;;;;;;;25.23;11.27;;;11.20;99.90;;;;;;5039353;28;20531;-79
2021/11/10 10:53:45;;;;;;;18.50;10.38;;;11.20;99.90;;;;;;5034255;28;20017;-81
2021/11/10 10:56:19;;;;;;;27.50;11.07;;;11.20;99.90;;;;;;5034334;28;20025;-81
2021/11/10 10:58:47;;;;;;;21.08;10.13;;;11.30;99.90;;;;;;5035284;28;20021;-80
2021/11/10 11:01:29;;;;;;;22.77;11.70;;;11.30;99.90;;;;;;5037391;28;20014;-80
2021/11/10 11:04:20;;;;;;;23.27;11.32;;;11.30;99.90;;;;;;5035883;28;20025;-80
2021/11/10 11:07:03;;;;;;;24.40;10.40;;;11.30;99.90;;;;;;5034834;28;20036;-81
2021/11/10 11:09:32;;;;;;;24.13;10.77;;;11.20;99.90;;;;;;5025740;28;20591;-80
2021/11/10 11:12:16;;;;;;;27.30;11.43;;;11.20;99.90;;;;;;5037845;28;20053;-80
2021/11/10 11:15:00;;;;;;;23.77;10.90;;;11.20;99.90;;;;;;5046969;28;20041;-82
2021/11/10 11:17:29;;;;;;;28.45;12.07;;;11.30;99.90;;;;;;5031782;28;20017;-82
2021/11/10 11:20:12;;;;;;;29.20;12.25;;;11.30;99.90;;;;;;5037541;28;20473;-81
2021/11/10 11:22:41;;;;;;;21.63;10.75;;;11.30;99.90;;;;;;5036962;28;20021;-81
2021/11/10 11:25:13;;;;;;;24.13;11.55;;;11.30;99.90;;;;;;5036848;28;20092;-80
2021/11/10 11:27:53;;;;;;;23.92;11.82;;;11.30;99.90;;;;;;5038057;28;20025;-82
2021/11/10 11:30:20;;;;;;;27.73;12.10;;;11.40;99.90;;;;;;5038357;28;20440;-81
2021/11/10 11:32:49;;;;;;;22.73;10.20;;;11.40;99.90;;;;;;5040232;28;20287;-82
2021/11/10 11:35:26;;;;;;;25.02;11.73;;;11.50;99.90;;;;;;5035363;28;20025;-81
2021/11/10 11:37:54;;;;;;;21.95;10.68;;;11.40;99.90;;;;;;5032157;28;20045;-80
2021/11/10 11:40:21;;;;;;;25.90;12.32;;;11.40;99.90;;;;;;5038296;28;20029;-81
2021/11/10 11:42:48;;;;;;;22.80;10.70;;;11.40;99.90;;;;;;5036143;28;20018;-79
2021/11/10 11:45:16;;;;;;;27.50;11.00;;;11.40;99.90;;;;;;5036019;28;20029;-79
2021/11/10 11:47:45;;;;;;;26.95;12.30;;;11.40;99.90;;;;;;5036578;28;20038;-80
2021/11/10 11:50:10;;;;;;;24.95;11.43;;;11.50;99.90;;;;;;5035971;28;20037;-81
2021/11/10 11:52:36;;;;;;;25.35;11.60;;;11.40;99.90;;;;;;5039960;28;20053;-81
2021/11/10 11:55:34;;;;;;;26.27;11.38;;;11.50;99.90;;;;;;5038678;28;20037;-80
2021/11/10 11:58:16;;;;;;;19.83;9.90;;;11.50;99.90;;;;;;5032305;28;20044;-81
2021/11/10 12:00:44;;;;;;;29.65;11.70;;;11.40;99.90;;;;;;5032075;28;20044;-80
2021/11/10 12:03:23;;;;;;;21.17;10.77;;;11.40;99.90;;;;;;5034525;28;20116;-80
2021/11/10 12:06:13;;;;;;;20.35;11.45;;;11.40;99.90;;;;;;5037869;28;20108;-81
2021/11/10 12:08:43;;;;;;;24.90;11.53;;;11.30;99.90;;;;;;5032613;28;20056;-81
2021/11/10 12:11:21;;;;;;;;;;;11.30;99.90;;;;;;5034747;28;20045;-80
2021/11/10 12:13:59;;;;;;;28.45;11.27;;;11.40;99.90;;;;;;5037967;28;19927;-82
2021/11/10 12:16:24;;;;;;;25.85;10.63;;;11.30;99.90;;;;;;5037112;28;20021;-80
2021/11/10 12:18:57;;;;;;;23.35;11.73;;;11.30;99.90;;;;;;5037979;28;20026;-80
2021/11/10 12:21:38;;;;;;;24.67;11.38;;;11.40;99.90;;;;;;5037663;28;20029;-80
2021/11/10 12:24:06;;;;;;;28.13;11.55;;;11.30;99.90;;;;;;5036027;28;20036;-81
2021/11/10 12:26:33;;;;;;;27.35;11.55;;;11.40;99.90;;;;;;5036675;28;20038;-80
2021/11/10 12:29:01;;;;;;;24.90;10.82;;;11.40;99.90;;;;;;5030028;28;20080;-80
2021/11/10 12:31:31;;;;;;;31.02;11.38;;;11.40;99.90;;;;;;5031118;28;20018;-80
2021/11/10 12:34:15;;;;;;;27.73;12.45;;;11.30;99.90;;;;;;5037063;28;20018;-81
2021/11/10 12:36:58;;;;;;;23.30;11.82;;;11.30;99.90;;;;;;5037664;28;20036;-79